createdAt,value
2023-04-20T00:02:18.158Z,84.20
2023-04-20T00:04:45.710Z,85.19
2023-04-20T00:07:13.904Z,85.46
2023-04-20T00:09:41.182Z,85.02
2023-04-20T00:12:08.729Z,84.81
2023-04-20T00:14:36.198Z,84.90
2023-04-20T00:17:03.508Z,84.78
2023-04-20T00:19:33.340Z,84.75
2023-04-20T00:22:01.026Z,83.97
2023-04-20T00:24:28.304Z,83.41
2023-04-20T00:26:55.756Z,82.17
2023-04-20T00:29:22.910Z,77.45
2023-04-20T00:31:50.166Z,75.47
2023-04-20T00:34:17.596Z,79.09
2023-04-20T00:36:44.809Z,79.80
2023-04-20T00:39:12.109Z,75.16
2023-04-20T00:41:39.584Z,71.67
2023-04-20T00:44:08.061Z,70.96
2023-04-20T00:46:35.740Z,71.16
2023-04-20T00:49:04.870Z,71.22
2023-04-20T00:51:33.182Z,70.78
2023-04-20T00:54:00.769Z,73.35
2023-04-20T00:56:28.242Z,76.75
2023-04-20T00:58:55.421Z,74.90
2023-04-20T01:01:22.596Z,77.00
2023-04-20T01:03:50.213Z,73.22
2023-04-20T01:06:17.480Z,74.38
2023-04-20T01:08:46.343Z,73.59
2023-04-20T01:11:14.308Z,74.61
2023-04-20T01:13:41.574Z,74.47
2023-04-20T01:16:08.790Z,75.11
2023-04-20T01:18:47.386Z,75.86
2023-04-20T01:21:15.289Z,77.93
2023-04-20T01:23:43.036Z,76.16
2023-04-20T01:26:11.411Z,75.31
2023-04-20T01:28:38.708Z,77.28
2023-04-20T01:31:07.052Z,80.19
2023-04-20T01:33:34.489Z,77.15
2023-04-20T01:36:01.691Z,76.04
2023-04-20T01:38:32.193Z,74.75
2023-04-20T01:41:04.665Z,79.82
2023-04-20T01:43:32.640Z,79.10
2023-04-20T01:46:00.220Z,81.00
2023-04-20T01:48:27.523Z,86.38
2023-04-20T01:50:54.912Z,89.68
2023-04-20T01:53:22.161Z,87.09
2023-04-20T01:55:49.651Z,87.72
2023-04-20T01:58:18.258Z,87.49
2023-04-20T02:00:47.252Z,86.77
2023-04-20T02:03:14.912Z,89.19
2023-04-20T02:05:42.186Z,88.53
2023-04-20T02:08:09.392Z,89.79
2023-04-20T02:10:39.716Z,89.31
2023-04-20T02:13:06.871Z,89.53
2023-04-20T02:15:34.144Z,89.64
2023-04-20T02:18:01.614Z,89.49
2023-04-20T02:20:28.931Z,88.82
2023-04-20T02:22:56.094Z,86.70
2023-04-20T02:25:23.578Z,89.34
2023-04-20T02:27:51.114Z,87.58
2023-04-20T02:30:18.315Z,89.16
2023-04-20T02:32:45.779Z,90.20
2023-04-20T02:35:16.355Z,89.85
2023-04-20T02:37:43.794Z,89.18
2023-04-20T02:40:12.947Z,85.47
2023-04-20T02:42:40.584Z,88.30
2023-04-20T02:45:08.686Z,87.44
2023-04-20T02:47:36.353Z,88.67
2023-04-20T02:50:04.072Z,90.03
2023-04-20T02:52:32.535Z,88.44
2023-04-20T02:55:00.577Z,89.21
2023-04-20T02:57:27.778Z,90.13
2023-04-20T02:59:55.843Z,88.85
2023-04-20T03:02:24.458Z,88.76
2023-04-20T03:04:52.386Z,89.55
2023-04-20T03:07:19.818Z,91.12
2023-04-20T03:09:48.612Z,91.04
2023-04-20T03:12:16.323Z,90.44
2023-04-20T03:14:43.966Z,92.38
2023-04-20T03:17:11.990Z,93.02
2023-04-20T03:19:39.325Z,89.42
2023-04-20T03:22:06.869Z,85.75
2023-04-20T03:24:34.630Z,86.86
2023-04-20T03:27:02.135Z,89.53
2023-04-20T03:29:29.890Z,90.79
2023-04-20T03:31:57.440Z,92.19
2023-04-20T03:34:24.869Z,92.02
2023-04-20T03:36:52.038Z,93.93
2023-04-20T03:39:19.585Z,93.13
2023-04-20T03:41:46.896Z,91.10
2023-04-20T03:44:15.153Z,86.73
2023-04-20T03:46:42.851Z,89.72
2023-04-20T03:49:09.993Z,89.55
2023-04-20T03:51:37.565Z,92.01
2023-04-20T03:54:06.634Z,88.14
2023-04-20T03:56:33.917Z,89.68
2023-04-20T03:59:01.178Z,87.66
2023-04-20T04:01:28.976Z,90.42
2023-04-20T04:03:57.647Z,90.52
2023-04-20T04:06:25.053Z,92.61
2023-04-20T04:08:52.218Z,89.79
2023-04-20T04:11:20.992Z,90.05
2023-04-20T04:13:48.142Z,89.58
2023-04-20T04:16:15.680Z,91.58
2023-04-20T04:18:43.944Z,92.11
2023-04-20T04:21:11.134Z,93.91
2023-04-20T04:23:39.169Z,93.69
2023-04-20T04:26:06.961Z,94.35
2023-04-20T04:28:34.705Z,93.27
2023-04-20T04:31:06.148Z,93.04
2023-04-20T04:33:34.745Z,94.34
2023-04-20T04:36:02.587Z,92.74
2023-04-20T04:38:33.379Z,91.43
2023-04-20T04:41:00.929Z,91.59
2023-04-20T04:43:29.525Z,91.74
2023-04-20T04:45:58.581Z,91.19
2023-04-20T04:48:26.647Z,91.93
2023-04-20T04:50:53.834Z,89.00
2023-04-20T04:53:20.992Z,90.51
2023-04-20T04:55:48.949Z,92.45
2023-04-20T04:58:16.161Z,91.91
2023-04-20T05:00:43.675Z,92.15
2023-04-20T05:03:11.391Z,92.85
2023-04-20T05:05:38.684Z,91.00
2023-04-20T05:08:05.921Z,91.39
2023-04-20T05:10:33.547Z,87.99
2023-04-20T05:13:00.740Z,91.38
2023-04-20T05:15:27.932Z,91.82
2023-04-20T05:17:55.645Z,90.14
2023-04-20T05:20:23.247Z,90.33
2023-04-20T05:22:50.444Z,90.51
2023-04-20T05:25:18.631Z,89.00
2023-04-20T05:27:46.416Z,87.87
2023-04-20T05:30:21.507Z,89.31
2023-04-20T05:32:52.299Z,89.29
2023-04-20T05:35:20.481Z,87.18
2023-04-20T05:37:47.999Z,85.82
2023-04-20T05:40:15.969Z,89.04
2023-04-20T05:42:43.287Z,89.77
2023-04-20T05:45:10.864Z,87.56
2023-04-20T05:47:38.318Z,88.02
2023-04-20T05:50:05.866Z,87.23
2023-04-20T05:52:33.038Z,86.06
2023-04-20T05:55:00.611Z,84.68
2023-04-20T05:57:27.826Z,84.80
2023-04-20T05:59:56.129Z,85.57
2023-04-20T06:02:23.791Z,84.07
2023-04-20T06:04:52.114Z,82.12
2023-04-20T06:07:19.401Z,79.94
2023-04-20T06:09:46.589Z,78.71
2023-04-20T06:12:14.121Z,77.31
2023-04-20T06:14:41.379Z,74.70
2023-04-20T06:17:11.117Z,72.40
2023-04-20T06:19:39.007Z,69.42
2023-04-20T06:22:09.277Z,70.10
2023-04-20T06:24:37.184Z,70.19
2023-04-20T06:27:04.868Z,70.52
2023-04-20T06:29:32.064Z,70.78
2023-04-20T06:31:59.289Z,71.69
2023-04-20T06:34:27.038Z,70.07
2023-04-20T06:36:54.292Z,71.16
2023-04-20T06:39:21.929Z,68.35
2023-04-20T06:41:49.380Z,68.97
2023-04-20T06:44:16.648Z,67.12
2023-04-20T06:46:44.267Z,64.95
2023-04-20T06:49:11.746Z,65.78
2023-04-20T06:51:39.318Z,63.71
2023-04-20T06:54:06.689Z,65.05
2023-04-20T06:56:35.578Z,64.48
2023-04-20T06:59:02.997Z,64.39
2023-04-20T07:01:30.887Z,63.28
2023-04-20T07:03:58.690Z,60.91
2023-04-20T07:06:27.883Z,60.64
2023-04-20T07:08:55.328Z,59.63
2023-04-20T07:11:24.036Z,58.50
2023-04-20T07:13:51.510Z,57.32
2023-04-20T07:16:18.739Z,57.38
2023-04-20T07:18:46.505Z,57.63
2023-04-20T07:21:15.345Z,58.45
2023-04-20T07:23:44.859Z,57.62
2023-04-20T07:26:12.812Z,54.87
2023-04-20T07:28:40.109Z,53.45
2023-04-20T07:31:07.442Z,52.79
2023-04-20T07:33:35.963Z,54.38
2023-04-20T07:36:04.679Z,52.06
2023-04-20T07:38:32.685Z,50.85
2023-04-20T07:41:00.221Z,50.12
2023-04-20T07:43:27.399Z,46.71
2023-04-20T07:45:54.535Z,41.73
2023-04-20T07:48:21.972Z,38.82
2023-04-20T07:50:49.131Z,35.78
2023-04-20T07:53:16.292Z,34.48
2023-04-20T07:55:44.559Z,31.60
2023-04-20T07:58:12.514Z,31.37
2023-04-20T08:00:39.717Z,29.81
2023-04-20T08:03:07.513Z,29.36
2023-04-20T08:05:34.960Z,29.04
2023-04-20T08:08:02.140Z,28.32
2023-04-20T08:10:29.600Z,29.46
2023-04-20T08:12:56.913Z,32.55
2023-04-20T08:15:24.347Z,30.96
2023-04-20T08:17:53.060Z,30.98
2023-04-20T08:20:20.354Z,31.99
2023-04-20T08:22:47.685Z,33.77
2023-04-20T08:25:15.172Z,38.94
2023-04-20T08:27:42.314Z,39.02
2023-04-20T08:30:09.955Z,34.70
2023-04-20T08:32:37.827Z,32.09
2023-04-20T08:35:05.509Z,31.45
2023-04-20T08:37:33.886Z,34.85
2023-04-20T08:40:03.146Z,37.13
2023-04-20T08:42:31.277Z,38.28
2023-04-20T08:44:59.568Z,36.89
2023-04-20T08:47:28.095Z,35.55
2023-04-20T08:49:55.733Z,35.24
2023-04-20T08:52:22.848Z,31.55
2023-04-20T08:54:56.468Z,31.85
2023-04-20T08:57:26.903Z,35.51
2023-04-20T08:59:54.531Z,35.17
2023-04-20T09:02:22.854Z,35.76
2023-04-20T09:04:50.397Z,37.92
2023-04-20T09:07:21.091Z,38.98
2023-04-20T09:09:58.130Z,40.41
2023-04-20T09:12:25.933Z,37.41
2023-04-20T09:14:53.362Z,37.94
2023-04-20T09:17:33.499Z,41.62
2023-04-20T09:20:01.146Z,39.33
2023-04-20T09:22:35.703Z,35.32
2023-04-20T09:25:13.106Z,38.86
2023-04-20T09:27:40.286Z,38.46
2023-04-20T09:30:09.329Z,38.66
2023-04-20T09:32:36.609Z,38.54
2023-04-20T09:35:04.021Z,36.71
2023-04-20T09:37:31.687Z,36.08
2023-04-20T09:39:59.748Z,36.17
2023-04-20T09:42:27.582Z,35.93
2023-04-20T09:44:55.003Z,35.03
2023-04-20T09:47:23.383Z,34.86
2023-04-20T09:49:50.824Z,37.81
2023-04-20T09:52:18.929Z,40.23
2023-04-20T09:54:46.179Z,41.60
2023-04-20T09:57:13.987Z,41.60
2023-04-20T09:59:46.617Z,39.81
2023-04-20T10:02:14.191Z,41.46
2023-04-20T10:04:57.661Z,42.16
2023-04-20T10:07:28.970Z,39.40
2023-04-20T10:10:03.781Z,40.92
2023-04-20T10:12:31.009Z,39.17
2023-04-20T10:15:00.793Z,40.78
2023-04-20T10:17:31.648Z,42.15
2023-04-20T10:19:59.267Z,43.24
2023-04-20T10:22:32.851Z,40.60
2023-04-20T10:25:01.354Z,40.07
2023-04-20T10:27:28.872Z,38.86
2023-04-20T10:29:56.061Z,37.80
2023-04-20T10:32:29.465Z,42.68
2023-04-20T10:35:03.663Z,42.10
2023-04-20T10:37:32.406Z,41.39
2023-04-20T10:39:59.734Z,40.65
2023-04-20T10:42:27.035Z,41.02
2023-04-20T10:44:54.619Z,39.54
2023-04-20T10:47:29.706Z,40.34
2023-04-20T10:50:07.973Z,42.01
2023-04-20T10:52:36.257Z,40.20
2023-04-20T10:55:04.662Z,38.72
2023-04-20T10:57:32.725Z,39.23
2023-04-20T11:00:00.307Z,38.13
2023-04-20T11:02:28.341Z,39.05
2023-04-20T11:05:01.022Z,39.58
2023-04-20T11:07:29.098Z,40.11
2023-04-20T11:09:56.768Z,41.87
2023-04-20T11:12:24.119Z,42.61
2023-04-20T11:15:00.337Z,43.11
2023-04-20T11:17:34.257Z,40.88
2023-04-20T11:20:19.915Z,38.69
2023-04-20T11:22:56.721Z,39.01
2023-04-20T11:25:24.326Z,40.00
2023-04-20T11:27:51.482Z,41.37
2023-04-20T11:30:19.547Z,38.67
2023-04-20T11:32:53.819Z,39.57
2023-04-20T11:35:21.153Z,39.40
2023-04-20T11:37:51.798Z,37.02
2023-04-20T11:40:19.213Z,38.07
2023-04-20T11:42:46.519Z,38.09
2023-04-20T11:45:14.001Z,38.29
2023-04-20T11:47:41.505Z,37.04
2023-04-20T11:50:10.347Z,35.25
2023-04-20T11:52:37.945Z,32.66
2023-04-20T11:55:06.055Z,32.75
2023-04-20T11:57:34.578Z,34.38
2023-04-20T12:00:02.127Z,36.88
2023-04-20T12:02:29.417Z,35.05
2023-04-20T12:04:57.388Z,35.80
2023-04-20T12:07:24.815Z,35.85
2023-04-20T12:09:52.001Z,38.12
2023-04-20T12:12:19.888Z,38.08
2023-04-20T12:14:47.073Z,34.90
2023-04-20T12:17:14.267Z,36.05
2023-04-20T12:19:41.775Z,36.92
2023-04-20T12:22:08.887Z,35.63
2023-04-20T12:24:36.044Z,35.53
2023-04-20T12:27:04.458Z,36.79
2023-04-20T12:29:33.197Z,39.51
2023-04-20T12:32:00.495Z,40.18
2023-04-20T12:34:28.027Z,40.18
2023-04-20T12:36:55.305Z,39.41
2023-04-20T12:39:22.465Z,37.57
2023-04-20T12:41:49.915Z,37.97
2023-04-20T12:44:17.651Z,38.10
2023-04-20T12:46:45.547Z,37.51
2023-04-20T12:49:13.022Z,38.10
2023-04-20T12:51:41.819Z,40.56
2023-04-20T12:54:09.009Z,39.72
2023-04-20T12:56:36.515Z,40.69
2023-04-20T12:59:03.912Z,39.90
2023-04-20T13:01:31.473Z,38.61
2023-04-20T13:03:59.090Z,39.73
2023-04-20T13:06:26.660Z,40.29
2023-04-20T13:08:53.945Z,41.22
2023-04-20T13:11:22.064Z,41.19
2023-04-20T13:13:49.306Z,40.04
2023-04-20T13:16:16.580Z,40.62
2023-04-20T13:18:44.234Z,40.48
2023-04-20T13:21:11.402Z,39.12
2023-04-20T13:23:42.233Z,37.08
2023-04-20T13:26:09.720Z,37.48
2023-04-20T13:28:37.776Z,34.27
2023-04-20T13:31:04.989Z,35.49
2023-04-20T13:33:32.804Z,33.91
2023-04-20T13:35:59.985Z,34.65
2023-04-20T13:38:27.124Z,35.54
2023-04-20T13:40:54.596Z,34.73
2023-04-20T13:43:21.910Z,35.56
2023-04-20T13:45:49.177Z,34.40
2023-04-20T13:48:16.777Z,33.48
2023-04-20T13:50:44.002Z,35.51
2023-04-20T13:53:11.153Z,34.50
2023-04-20T13:55:38.593Z,35.22
2023-04-20T13:58:05.757Z,37.48
2023-04-20T14:00:34.651Z,37.75
2023-04-20T14:03:02.777Z,37.08
2023-04-20T14:05:30.331Z,35.85
2023-04-20T14:08:01.470Z,34.77
2023-04-20T14:10:29.116Z,36.30
2023-04-20T14:12:56.614Z,35.03
2023-04-20T14:15:23.823Z,34.25
2023-04-20T14:17:52.784Z,33.01
2023-04-20T14:20:20.210Z,31.50
2023-04-20T14:22:47.396Z,32.70
2023-04-20T14:25:14.890Z,34.09
2023-04-20T14:27:42.133Z,31.71
2023-04-20T14:30:09.664Z,32.31
2023-04-20T14:32:38.296Z,30.81
2023-04-20T14:35:06.170Z,33.08
2023-04-20T14:37:33.733Z,31.18
2023-04-20T14:40:01.327Z,31.81
2023-04-20T14:42:28.695Z,32.43
2023-04-20T14:44:56.067Z,31.93
2023-04-20T14:47:23.555Z,30.36
2023-04-20T14:49:50.831Z,30.37
2023-04-20T14:52:18.010Z,30.66
2023-04-20T14:54:45.442Z,33.86
2023-04-20T14:57:12.653Z,34.55
2023-04-20T14:59:41.451Z,34.30
2023-04-20T15:02:09.050Z,33.45
2023-04-20T15:04:36.764Z,34.38
2023-04-20T15:07:04.210Z,35.62
2023-04-20T15:09:32.974Z,33.94
2023-04-20T15:12:00.254Z,33.35
2023-04-20T15:14:27.777Z,33.33
2023-04-20T15:16:55.368Z,33.65
2023-04-20T15:19:25.859Z,33.91
2023-04-20T15:21:53.237Z,34.43
2023-04-20T15:24:21.045Z,34.93
2023-04-20T15:26:48.338Z,35.66
2023-04-20T15:29:15.817Z,35.30
2023-04-20T15:31:45.545Z,34.47
2023-04-20T15:34:15.264Z,34.95
2023-04-20T15:36:43.661Z,36.14
2023-04-20T15:39:11.079Z,36.77
2023-04-20T15:41:38.244Z,35.91
2023-04-20T15:44:05.862Z,37.81
2023-04-20T15:46:33.310Z,34.96
2023-04-20T15:49:00.596Z,31.92
2023-04-20T15:51:28.188Z,33.44
2023-04-20T15:53:55.405Z,34.50
2023-04-20T15:56:23.343Z,32.99
2023-04-20T15:58:51.440Z,32.85
2023-04-20T16:01:19.683Z,32.98
2023-04-20T16:03:47.731Z,31.96
2023-04-20T16:06:15.228Z,31.64
2023-04-20T16:08:42.455Z,32.17
2023-04-20T16:11:10.021Z,31.51
2023-04-20T16:13:37.239Z,31.56
2023-04-20T16:16:04.493Z,31.60
2023-04-20T16:18:35.108Z,30.30
2023-04-20T16:21:02.340Z,31.57
2023-04-20T16:23:29.691Z,30.41
2023-04-20T16:25:57.152Z,29.76
2023-04-20T16:28:24.315Z,30.14
2023-04-20T16:30:51.651Z,29.23
2023-04-20T16:33:19.722Z,29.34
2023-04-20T16:35:46.921Z,33.60
2023-04-20T16:38:14.221Z,34.02
2023-04-20T16:40:42.700Z,35.06
2023-04-20T16:43:09.911Z,35.58
2023-04-20T16:45:39.002Z,35.91
2023-04-20T16:48:08.167Z,36.06
2023-04-20T16:50:38.066Z,36.34
2023-04-20T16:53:09.177Z,36.31
2023-04-20T16:55:54.914Z,37.97
2023-04-20T16:58:22.554Z,36.96
2023-04-20T17:00:49.886Z,36.81
2023-04-20T17:03:17.533Z,37.17
2023-04-20T17:05:46.580Z,37.35
2023-04-20T17:08:13.764Z,38.05
2023-04-20T17:10:40.922Z,38.51
2023-04-20T17:13:08.485Z,38.78
2023-04-20T17:15:35.760Z,39.19
2023-04-20T17:18:03.692Z,39.29
2023-04-20T17:20:31.174Z,38.78
2023-04-20T17:22:58.342Z,39.16
2023-04-20T17:25:25.572Z,39.19
2023-04-20T17:27:53.037Z,39.14
2023-04-20T17:30:21.174Z,39.29
2023-04-20T17:32:48.356Z,39.66
2023-04-20T17:35:15.853Z,39.94
2023-04-20T17:37:43.412Z,40.24
2023-04-20T17:40:10.842Z,40.14
2023-04-20T17:42:38.668Z,40.12
2023-04-20T17:45:06.228Z,40.94
2023-04-20T17:47:35.317Z,40.22
2023-04-20T17:50:04.589Z,41.32
2023-04-20T17:52:31.990Z,41.61
2023-04-20T17:55:05.446Z,40.83
2023-04-20T17:57:33.028Z,41.22
2023-04-20T18:00:00.615Z,41.11
2023-04-20T18:02:28.053Z,41.37
2023-04-20T18:04:59.526Z,41.38
2023-04-20T18:07:27.817Z,41.49
2023-04-20T18:09:55.096Z,41.91
2023-04-20T18:12:22.584Z,41.04
2023-04-20T18:14:50.509Z,40.22
2023-04-20T18:17:18.484Z,40.00
2023-04-20T18:19:46.620Z,40.38
2023-04-20T18:22:14.701Z,40.14
2023-04-20T18:24:43.703Z,40.88
2023-04-20T18:27:12.030Z,40.05
2023-04-20T18:29:39.831Z,40.07
2023-04-20T18:32:07.308Z,40.94
2023-04-20T18:34:36.857Z,40.98
2023-04-20T18:37:04.648Z,41.64
2023-04-20T18:39:32.711Z,42.09
2023-04-20T18:42:01.394Z,41.88
2023-04-20T18:44:29.861Z,41.51
2023-04-20T18:46:58.673Z,41.53
2023-04-20T18:49:27.177Z,42.70
2023-04-20T18:51:56.256Z,42.43
2023-04-20T18:54:26.132Z,41.67
2023-04-20T18:56:54.932Z,43.29
2023-04-20T18:59:22.583Z,44.67
2023-04-20T19:01:53.535Z,43.05
2023-04-20T19:04:23.371Z,44.01
2023-04-20T19:06:52.359Z,43.51
2023-04-20T19:09:22.961Z,44.16
2023-04-20T19:11:51.600Z,44.71
2023-04-20T19:14:19.438Z,44.04
2023-04-20T19:16:47.816Z,44.10
2023-04-20T19:19:16.916Z,43.81
2023-04-20T19:21:44.691Z,44.76
2023-04-20T19:24:12.712Z,44.42
2023-04-20T19:26:41.069Z,44.61
2023-04-20T19:29:14.963Z,44.98
2023-04-20T19:31:43.841Z,45.46
2023-04-20T19:34:13.841Z,46.12
2023-04-20T19:36:42.343Z,46.18
2023-04-20T19:39:10.474Z,46.14
2023-04-20T19:41:38.301Z,45.94
2023-04-20T19:44:07.057Z,46.31
2023-04-20T19:46:35.390Z,46.39
2023-04-20T19:49:03.782Z,45.83
2023-04-20T19:51:33.322Z,46.06
2023-04-20T19:54:04.095Z,46.05
2023-04-20T19:56:33.496Z,45.96
2023-04-20T19:59:01.487Z,45.48
2023-04-20T20:01:30.456Z,45.93
2023-04-20T20:04:01.928Z,46.29
2023-04-20T20:06:29.298Z,47.15
2023-04-20T20:08:56.870Z,46.27
2023-04-20T20:11:25.411Z,46.23
2023-04-20T20:13:52.948Z,46.33
2023-04-20T20:16:20.793Z,47.23
2023-04-20T20:18:48.708Z,47.94
2023-04-20T20:21:16.436Z,47.50
2023-04-20T20:23:44.388Z,48.14
2023-04-20T20:26:12.316Z,48.73
2023-04-20T20:28:41.565Z,48.60
2023-04-20T20:31:10.789Z,48.91
2023-04-20T20:33:39.704Z,48.88
2023-04-20T20:36:08.750Z,49.66
2023-04-20T20:38:35.955Z,49.30
2023-04-20T20:41:04.053Z,49.24
2023-04-20T20:43:31.693Z,50.35
2023-04-20T20:45:58.891Z,52.13
2023-04-20T20:48:26.393Z,53.30
2023-04-20T20:50:53.549Z,53.80
2023-04-20T20:53:20.917Z,57.36
2023-04-20T20:55:48.320Z,57.23
2023-04-20T20:58:15.477Z,55.76
2023-04-20T21:00:42.642Z,54.35
2023-04-20T21:03:10.292Z,53.93
2023-04-20T21:05:37.540Z,56.33
2023-04-20T21:08:04.699Z,55.31
2023-04-20T21:10:32.158Z,55.47
2023-04-20T21:12:59.354Z,54.70
2023-04-20T21:15:26.567Z,55.63
2023-04-20T21:17:54.042Z,54.77
2023-04-20T21:20:21.355Z,55.91
2023-04-20T21:22:48.530Z,55.68
2023-04-20T21:25:15.998Z,58.02
2023-04-20T21:27:43.208Z,56.02
2023-04-20T21:30:10.966Z,55.63
2023-04-20T21:32:38.502Z,54.20
2023-04-20T21:35:06.168Z,55.39
2023-04-20T21:37:33.313Z,54.45
2023-04-20T21:40:00.778Z,59.15
2023-04-20T21:42:27.933Z,59.07
2023-04-20T21:44:55.071Z,59.91
2023-04-20T21:47:22.698Z,60.60
2023-04-20T21:49:49.885Z,64.35
2023-04-20T21:52:17.036Z,65.56
2023-04-20T21:54:44.487Z,66.05
2023-04-20T21:57:11.711Z,65.84
2023-04-20T21:59:38.912Z,64.52
2023-04-20T22:02:06.381Z,66.77
2023-04-20T22:04:33.869Z,67.46
2023-04-20T22:07:01.153Z,67.43
2023-04-20T22:09:28.398Z,63.58
2023-04-20T22:11:57.660Z,65.63
2023-04-20T22:14:24.927Z,66.22
2023-04-20T22:16:52.441Z,62.61
2023-04-20T22:19:21.152Z,61.17
2023-04-20T22:21:48.365Z,61.00
2023-04-20T22:24:15.658Z,60.11
2023-04-20T22:26:43.249Z,59.33
2023-04-20T22:29:10.540Z,59.66
2023-04-20T22:31:38.115Z,59.12
2023-04-20T22:34:05.624Z,58.03
2023-04-20T22:36:32.969Z,58.57
2023-04-20T22:39:00.504Z,61.58
2023-04-20T22:41:28.060Z,62.75
2023-04-20T22:43:55.240Z,62.32
2023-04-20T22:46:22.490Z,62.33
2023-04-20T22:48:50.005Z,63.63
2023-04-20T22:51:17.370Z,60.35
2023-04-20T22:53:44.598Z,60.83
2023-04-20T22:56:12.019Z,60.88
2023-04-20T22:58:39.200Z,59.52
2023-04-20T23:01:06.464Z,60.86
2023-04-20T23:03:34.070Z,65.37
2023-04-20T23:06:01.417Z,68.10
2023-04-20T23:08:28.642Z,68.88
2023-04-20T23:10:56.146Z,71.20
2023-04-20T23:13:26.504Z,72.80
2023-04-20T23:15:54.017Z,70.43
2023-04-20T23:18:21.608Z,74.22
2023-04-20T23:20:48.806Z,72.29
2023-04-20T23:23:15.938Z,74.37
2023-04-20T23:25:43.416Z,73.49
2023-04-20T23:28:10.574Z,75.05
2023-04-20T23:30:37.810Z,76.12
2023-04-20T23:33:05.954Z,76.37
2023-04-20T23:35:33.559Z,77.19
2023-04-20T23:38:01.032Z,77.82
2023-04-20T23:40:28.507Z,77.66
2023-04-20T23:42:55.755Z,77.94
2023-04-20T23:45:23.206Z,74.93
2023-04-20T23:47:50.892Z,75.78
2023-04-20T23:50:18.062Z,78.32
2023-04-20T23:52:45.372Z,78.27
2023-04-20T23:55:13.646Z,77.81
2023-04-20T23:57:40.816Z,78.96
